Time;durP1;ratioP1;P1;durP2;ratioP2;P2;SDS_P1;SDS_P2;PMS_P1;PMS_P2;Temp;Humidity;BMP_temperature;BMP_pressure;BME280_temperature;BME280_humidity;BME280_pressure;Samples;Min_cycle;Max_cycle;Signal;HPM_P1;HPM_P2
2022/11/29 00:01:27;;;;;;;54.33;31.40;;;;;;;3.10;91.22;101041.47;7399327;19;20039;-67
2022/11/29 00:03:56;;;;;;;55.67;32.17;;;;;;;3.07;91.20;101036.25;7401155;19;20078;-67
2022/11/29 00:06:29;;;;;;;56.33;30.83;;;;;;;3.08;91.26;101042.28;7399989;19;20023;-67
2022/11/29 00:09:07;;;;;;;56.53;32.45;;;;;;;3.06;91.21;101041.41;7397559;19;20013;-67
2022/11/29 00:14:20;;;;;;;53.70;31.42;;;;;;;3.04;91.36;101046.56;7400554;19;20010;-67
2022/11/29 00:16:52;;;;;;;53.63;30.33;;;;;;;3.02;91.36;101045.69;7398033;19;20098;-67
2022/11/29 00:19:21;;;;;;;52.72;31.23;;;;;;;3.02;91.19;101048.28;7398438;19;20023;-67
2022/11/29 00:21:52;;;;;;;57.33;32.05;;;;;;;3.00;91.26;101044.78;7397638;19;20078;-67
2022/11/29 00:24:20;;;;;;;57.30;32.33;;;;;;;3.01;91.11;101046.53;7399201;19;20029;-67
2022/11/29 00:26:49;;;;;;;54.58;31.42;;;;;;;3.00;91.25;101055.16;7400106;19;20082;-67
2022/11/29 00:29:18;;;;;;;60.70;34.25;;;;;;;2.98;91.34;101048.19;7399966;19;20074;-67
2022/11/29 00:31:47;;;;;;;60.60;32.42;;;;;;;2.98;91.45;101056.84;7398166;19;20040;-68
2022/11/29 00:34:15;;;;;;;59.25;31.75;;;;;;;2.99;91.65;101047.34;7399899;19;20022;-68
2022/11/29 00:36:44;;;;;;;51.95;31.27;;;;;;;2.98;91.51;101048.19;7399838;19;20086;-68
2022/11/29 00:39:15;;;;;;;59.58;34.22;;;;;;;2.95;91.70;101046.44;7397521;19;20548;-68
2022/11/29 00:41:43;;;;;;;57.17;31.75;;;;;;;2.98;91.39;101045.59;7396877;19;20014;-68
2022/11/29 00:44:12;;;;;;;52.45;30.80;;;;;;;2.97;91.59;101049.94;7399512;19;20082;-68
2022/11/29 00:46:40;;;;;;;52.95;31.65;;;;;;;2.95;91.71;101036.06;7399497;19;20078;-68
2022/11/29 00:49:09;;;;;;;54.47;31.70;;;;;;;2.96;91.57;101042.09;7399443;19;20018;-68
2022/11/29 00:51:37;;;;;;;53.92;31.50;;;;;;;2.95;91.80;101041.25;7396621;19;20084;-68
2022/11/29 00:54:06;;;;;;;53.20;31.13;;;;;;;2.95;91.76;101043.84;7396623;19;20468;-68
2022/11/29 00:56:37;;;;;;;54.03;32.50;;;;;;;2.95;91.63;101045.56;7398853;19;20458;-68
2022/11/29 00:59:06;;;;;;;53.83;32.90;;;;;;;2.94;91.68;101042.09;7398026;19;20066;-68
2022/11/29 01:01:34;;;;;;;52.08;30.92;;;;;;;2.95;91.83;101040.41;7397453;19;20022;-68
2022/11/29 01:04:03;;;;;;;52.30;30.98;;;;;;;2.95;91.95;101040.41;7398987;19;20026;-68
2022/11/29 01:06:32;;;;;;;54.17;31.35;;;;;;;2.94;91.83;101029.13;7398842;19;20039;-68
2022/11/29 01:09:00;;;;;;;50.22;29.80;;;;;;;2.95;91.69;101035.22;7398703;19;20074;-68
2022/11/29 01:11:29;;;;;;;54.40;31.45;;;;;;;2.95;91.78;101032.63;7397310;19;20096;-68
2022/11/29 01:14:03;;;;;;;54.15;31.20;;;;;;;2.94;91.71;101044.69;7398217;19;20449;-68
2022/11/29 01:16:33;;;;;;;51.65;29.65;;;;;;;2.94;91.91;101044.69;7396645;19;20073;-68
2022/11/29 01:19:02;;;;;;;54.10;31.63;;;;;;;2.95;91.88;101050.75;7397526;19;20014;-68
2022/11/29 01:21:30;;;;;;;53.78;30.60;;;;;;;2.95;91.96;101043.84;7396927;19;20084;-68
2022/11/29 01:23:59;;;;;;;54.22;30.38;;;;;;;2.95;92.22;101045.56;7395988;19;20086;-68
2022/11/29 01:26:29;;;;;;;56.20;31.30;;;;;;;2.95;91.98;101051.63;7397768;19;20011;-68
2022/11/29 01:29:01;;;;;;;54.00;31.85;;;;;;;2.95;92.10;101041.25;7397762;19;20018;-68
2022/11/29 01:31:32;;;;;;;57.80;32.03;;;;;;;2.95;91.90;101042.97;7396895;19;20082;-68
2022/11/29 01:34:02;;;;;;;54.17;30.05;;;;;;;2.96;91.98;101045.59;7398282;19;20375;-68
2022/11/29 01:36:31;;;;;;;55.60;32.08;;;;;;;2.95;91.98;101046.44;7394334;19;20026;-68
2022/11/29 01:39:01;;;;;;;52.90;31.40;;;;;;;2.95;92.16;101046.44;7395738;19;20082;-68
2022/11/29 01:41:31;;;;;;;53.53;31.70;;;;;;;2.96;92.09;101052.47;7396840;19;20023;-68
2022/11/29 01:44:06;;;;;;;50.55;29.55;;;;;;;2.96;92.08;101049.88;7397941;19;20018;-66
2022/11/29 01:46:36;;;;;;;51.88;31.20;;;;;;;2.95;91.99;101049.03;7397871;19;20103;-67
2022/11/29 01:49:08;;;;;;;53.70;32.63;;;;;;;2.96;92.15;101048.19;7397805;19;20070;-67
2022/11/29 01:51:39;;;;;;;51.22;30.80;;;;;;;2.97;92.17;101044.75;7395597;19;20083;-67
2022/11/29 01:54:09;;;;;;;51.95;29.85;;;;;;;2.96;92.03;101048.19;7396843;19;20424;-67
2022/11/29 01:56:40;;;;;;;49.92;30.70;;;;;;;2.96;92.22;101048.19;7397590;19;20452;-67
2022/11/29 01:59:13;;;;;;;56.15;31.08;;;;;;;2.96;92.04;101053.38;7395695;19;20070;-67
2022/11/29 02:01:42;;;;;;;53.65;31.48;;;;;;;2.96;92.28;101045.59;7395939;19;20428;-67
2022/11/29 02:04:11;;;;;;;50.88;29.80;;;;;;;2.95;92.21;101051.63;7396917;19;20018;-67
2022/11/29 02:06:41;;;;;;;52.72;31.25;;;;;;;2.95;92.20;101036.06;7396871;19;20022;-67
2022/11/29 02:09:19;;;;;;;52.88;30.48;;;;;;;2.95;92.19;101046.44;7396419;19;20070;-67
2022/11/29 02:12:09;;;;;;;55.65;31.55;;;;;;;2.94;92.30;101047.28;7395154;19;20010;-67
2022/11/29 02:15:01;;;;;;;53.95;31.02;;;;;;;2.93;92.39;101033.47;7397359;19;20070;-68
2022/11/29 02:18:01;;;;;;;50.25;30.17;;;;;;;2.93;92.40;101030.88;7393836;19;20421;-68
2022/11/29 02:20:58;;;;;;;54.60;31.17;;;;;;;2.92;92.08;101030.84;7396248;19;20089;-68
2022/11/29 02:24:06;;;;;;;52.42;31.45;;;;;;;2.91;92.15;101034.28;7395939;19;20074;-68
2022/11/29 02:27:08;;;;;;;52.47;31.48;;;;;;;2.89;92.22;101034.28;7395222;19;20078;-68
2022/11/29 02:30:09;;;;;;;57.40;31.45;;;;;;;2.89;92.56;101042.06;7394818;19;20078;-68
2022/11/29 02:33:16;;;;;;;51.78;29.92;;;;;;;2.89;92.55;101041.16;7396451;19;20022;-68
2022/11/29 02:36:03;;;;;;;48.67;29.58;;;;;;;2.89;92.61;101039.47;7394726;19;20516;-68
2022/11/29 02:39:02;;;;;;;50.90;30.45;;;;;;;2.88;92.36;101044.59;7395808;19;20092;-68
2022/11/29 02:41:47;;;;;;;49.47;31.52;;;;;;;2.88;92.61;101042.00;7394988;19;20092;-68
2022/11/29 02:44:31;;;;;;;51.13;30.60;;;;;;;2.88;92.55;101049.78;7395205;19;20021;-68
2022/11/29 02:47:15;;;;;;;52.78;31.58;;;;;;;2.87;92.71;101053.22;7395860;19;20085;-68
2022/11/29 02:50:09;;;;;;;53.65;30.83;;;;;;;2.86;92.53;101048.91;7395936;19;20014;-68
2022/11/29 02:52:50;;;;;;;50.70;30.35;;;;;;;2.86;92.70;101051.50;7395688;19;20074;-68
2022/11/29 02:55:26;;;;;;;49.10;30.17;;;;;;;2.84;92.72;101051.44;7395731;19;20098;-68
2022/11/29 02:58:01;;;;;;;53.15;31.67;;;;;;;2.84;92.83;101059.22;7395604;19;20081;-68
2022/11/29 03:00:30;;;;;;;53.33;32.08;;;;;;;2.84;92.76;101058.38;7393614;19;20022;-67
2022/11/29 03:03:05;;;;;;;55.92;32.42;;;;;;;2.85;92.87;101060.13;7395110;19;20090;-68
2022/11/29 03:05:43;;;;;;;52.47;30.50;;;;;;;2.84;92.86;101063.53;7395470;19;20014;-68
2022/11/29 03:08:21;;;;;;;55.65;32.78;;;;;;;2.84;92.76;101060.94;7395275;19;20021;-68
2022/11/29 03:11:01;;;;;;;52.90;31.77;;;;;;;2.84;92.74;101059.22;7394264;19;20078;-68
2022/11/29 03:13:42;;;;;;;52.78;31.23;;;;;;;2.84;92.75;101058.38;7395078;19;20018;-69
2022/11/29 03:16:23;;;;;;;54.28;31.70;;;;;;;2.85;92.97;101073.06;7394810;19;20018;-68
2022/11/29 03:19:01;;;;;;;50.28;30.70;;;;;;;2.84;92.89;101068.72;7397404;19;20015;-68
2022/11/29 03:21:41;;;;;;;55.90;32.00;;;;;;;2.84;92.76;101073.91;7394819;19;20018;-68
2022/11/29 03:24:22;;;;;;;54.17;31.00;;;;;;;2.84;92.80;101072.19;7394108;19;20089;-69
2022/11/29 03:26:57;;;;;;;49.50;31.15;;;;;;;2.83;92.86;101078.25;7395157;19;20074;-68
2022/11/29 03:29:31;;;;;;;49.55;31.10;;;;;;;2.84;92.72;101079.09;7394123;19;20509;-68
2022/11/29 03:32:08;;;;;;;53.03;32.03;;;;;;;2.84;92.71;101085.13;7392825;19;20023;-68
2022/11/29 03:34:56;;;;;;;54.50;33.05;;;;;;;2.83;92.83;101079.94;7392699;19;20074;-68
2022/11/29 03:37:31;;;;;;;52.85;31.52;;;;;;;2.83;93.04;101083.41;7394603;19;20077;-68
2022/11/29 03:40:08;;;;;;;54.17;32.55;;;;;;;2.83;93.07;101080.81;7392262;19;20544;-68
2022/11/29 03:42:43;;;;;;;53.35;32.35;;;;;;;2.83;93.05;101083.41;7394579;19;20073;-68
2022/11/29 03:45:30;;;;;;;57.88;33.10;;;;;;;2.83;92.77;101083.41;7393693;19;20502;-68
2022/11/29 03:48:06;;;;;;;54.60;32.08;;;;;;;2.84;93.06;101092.06;7394460;19;20029;-68
2022/11/29 03:50:39;;;;;;;51.15;31.13;;;;;;;2.84;93.13;101085.13;7392988;19;20422;-68
2022/11/29 03:53:17;;;;;;;54.63;32.70;;;;;;;2.84;92.93;101084.28;7392117;19;20070;-69
2022/11/29 03:55:55;;;;;;;52.03;32.80;;;;;;;2.83;92.88;101085.13;7394172;19;20516;-68
2022/11/29 03:58:37;;;;;;;54.88;32.38;;;;;;;2.82;92.93;101083.38;7395459;19;20018;-68
2022/11/29 04:01:34;;;;;;;56.22;34.15;;;;;;;2.79;93.10;101081.59;7399951;19;20018;-69
2022/11/29 04:04:33;;;;;;;57.30;33.67;;;;;;;2.77;92.94;101079.00;7401301;19;20102;-68
2022/11/29 04:07:16;;;;;;;54.55;33.03;;;;;;;2.81;93.14;101090.28;7400911;19;20410;-68
2022/11/29 04:10:16;;;;;;;56.50;34.05;;;;;;;2.81;93.08;101089.44;7400295;19;20074;-69
2022/11/29 04:13:27;;;;;;;59.13;34.17;;;;;;;2.79;93.06;101094.56;7399965;19;20086;-68
2022/11/29 04:16:36;;;;;;;57.38;34.45;;;;;;;2.79;93.12;101096.28;7397744;19;20027;-68
2022/11/29 04:19:56;;;;;;;54.65;34.03;;;;;;;2.76;93.33;101091.94;7396212;19;20039;-68
2022/11/29 04:22:45;;;;;;;59.45;33.38;;;;;;;2.76;93.32;101097.97;7397566;19;20018;-68
2022/11/29 04:25:37;;;;;;;59.38;34.85;;;;;;;2.75;93.45;101101.41;7400262;19;20035;-69
2022/11/29 04:28:40;;;;;;;61.17;33.90;;;;;;;2.76;93.72;101102.31;7394493;19;20031;-68
2022/11/29 04:31:19;;;;;;;58.25;34.22;;;;;;;2.72;93.60;101096.19;7398274;19;20022;-68
2022/11/29 04:34:23;;;;;;;63.13;34.83;;;;;;;2.73;93.74;101097.94;7400158;19;20018;-68
2022/11/29 04:37:16;;;;;;;58.20;33.92;;;;;;;2.73;93.61;101104.81;7399749;19;20024;-69
2022/11/29 04:40:14;;;;;;;64.32;36.03;;;;;;;2.72;93.70;101103.09;7398197;19;20018;-68
2022/11/29 04:43:09;;;;;;;56.47;33.30;;;;;;;2.71;93.84;101103.94;7397038;19;20015;-68
2022/11/29 04:45:55;;;;;;;62.25;35.75;;;;;;;2.71;93.75;101106.53;7399236;19;20022;-68
2022/11/29 04:48:39;;;;;;;59.92;35.03;;;;;;;2.69;93.88;101110.81;7396259;19;20020;-68
2022/11/29 04:51:14;;;;;;;;;;;;;;;2.69;94.14;101111.69;7399227;19;20378;-68
2022/11/29 04:53:55;;;;;;;62.22;35.28;;;;;;;2.68;94.11;101114.25;7397105;19;19923;-68
2022/11/29 04:56:32;;;;;;;58.65;35.28;;;;;;;2.67;94.14;101108.19;7399103;19;20018;-68
2022/11/29 04:59:07;;;;;;;59.10;35.47;;;;;;;2.66;94.22;101113.38;7398444;19;20407;-69
2022/11/29 05:01:52;;;;;;;65.18;35.22;;;;;;;2.66;94.13;101111.63;7397081;19;20359;-69
2022/11/29 05:04:24;;;;;;;62.38;36.58;;;;;;;2.67;94.43;101120.28;7399079;19;20040;-69
2022/11/29 05:07:03;;;;;;;62.97;38.13;;;;;;;2.65;94.48;101120.25;7398249;19;20481;-69
2022/11/29 05:09:46;;;;;;;64.78;38.13;;;;;;;2.65;94.38;101117.66;7397715;19;20015;-69
2022/11/29 05:12:23;;;;;;;64.25;36.30;;;;;;;2.64;94.65;101118.53;7395674;19;20023;-69
2022/11/29 05:15:06;;;;;;;63.05;36.30;;;;;;;2.66;94.50;101126.31;7398533;19;20015;-69
2022/11/29 05:17:46;;;;;;;61.22;35.55;;;;;;;2.66;94.49;101119.41;7396228;19;20477;-69
2022/11/29 05:20:31;;;;;;;66.55;36.85;;;;;;;2.67;94.53;101128.06;7396084;19;20074;-68
2022/11/29 05:23:31;;;;;;;58.95;35.13;;;;;;;2.66;94.73;101134.94;7398512;19;20018;-68
2022/11/29 05:26:06;;;;;;;69.05;38.05;;;;;;;2.68;94.77;101132.38;7397774;19;20028;-68
2022/11/29 05:28:45;;;;;;;65.68;37.67;;;;;;;2.68;94.97;101130.69;7397923;19;20027;-69
2022/11/29 05:31:42;;;;;;;66.38;38.13;;;;;;;2.69;94.73;101137.63;7396200;19;20018;-69
2022/11/29 05:34:32;;;;;;;67.03;38.15;;;;;;;2.68;95.15;101133.28;7397472;19;20022;-69
2022/11/29 05:37:09;;;;;;;67.18;37.03;;;;;;;2.70;95.00;101135.88;7395201;19;20031;-67
2022/11/29 05:39:49;;;;;;;68.97;37.63;;;;;;;2.69;95.05;101136.72;7396711;19;20015;-67
2022/11/29 05:42:44;;;;;;;65.93;37.10;;;;;;;2.71;95.14;101142.81;7394869;19;20022;-68
2022/11/29 05:45:19;;;;;;;71.95;40.15;;;;;;;2.71;94.94;101143.66;7395163;19;20025;-68
2022/11/29 05:47:54;;;;;;;61.40;36.47;;;;;;;2.72;95.32;101142.84;7394373;19;20024;-69
2022/11/29 05:50:32;;;;;;;66.25;37.85;;;;;;;2.72;95.20;101149.75;7396448;19;20019;-69
2022/11/29 05:53:14;;;;;;;69.55;38.50;;;;;;;2.74;95.19;101150.63;7396061;19;20371;-68
2022/11/29 05:55:54;;;;;;;62.50;36.13;;;;;;;2.76;95.21;101146.34;7395246;19;20038;-67
2022/11/29 05:58:30;;;;;;;69.82;40.25;;;;;;;2.77;95.19;101150.69;7396469;19;20019;-69
2022/11/29 06:01:04;;;;;;;65.10;38.10;;;;;;;2.79;95.30;101154.16;7393042;19;20346;-68
2022/11/29 06:03:40;;;;;;;66.45;40.30;;;;;;;2.80;95.23;101157.66;7396336;19;20011;-68
2022/11/29 06:06:20;;;;;;;68.75;38.33;;;;;;;2.82;95.27;101168.88;7394979;19;20014;-68
2022/11/29 06:08:56;;;;;;;67.13;39.03;;;;;;;2.80;95.50;101162.84;7394748;19;20031;-67
2022/11/29 06:11:29;;;;;;;66.88;38.05;;;;;;;2.82;95.36;101174.97;7393621;19;20026;-69
2022/11/29 06:14:06;;;;;;;69.65;39.38;;;;;;;2.82;95.59;101172.38;7396004;19;20032;-69
2022/11/29 06:16:55;;;;;;;62.72;39.15;;;;;;;2.82;95.64;101176.66;7395258;19;20011;-69
2022/11/29 06:20:07;;;;;;;72.07;39.45;;;;;;;2.83;95.52;101176.72;7394793;19;20524;-68
2022/11/29 06:22:57;;;;;;;64.40;37.90;;;;;;;2.83;95.46;101183.59;7392907;19;20010;-69
2022/11/29 06:25:42;;;;;;;64.70;37.55;;;;;;;2.83;95.68;101178.41;7392827;19;20425;-69
2022/11/29 06:28:25;;;;;;;69.03;39.97;;;;;;;2.85;nan;101187.09;7392983;19;20018;-69
2022/11/29 06:31:02;;;;;;;68.43;39.55;;;;;;;2.85;95.66;101181.91;7393577;19;20084;-69
2022/11/29 06:33:40;;;;;;;68.70;38.17;;;;;;;2.86;95.83;101191.44;7395482;19;20354;-69
2022/11/29 06:36:20;;;;;;;65.38;39.00;;;;;;;2.85;95.81;101185.38;7395841;19;20018;-70
2022/11/29 06:38:51;;;;;;;63.45;38.10;;;;;;;2.86;95.83;101184.53;7395678;19;20032;-68
2022/11/29 06:41:23;;;;;;;64.80;37.45;;;;;;;2.86;95.90;101192.31;7394397;19;20148;-68
2022/11/29 06:43:53;;;;;;;66.88;37.17;;;;;;;2.87;95.96;101194.06;7395289;19;20031;-69
2022/11/29 06:46:30;;;;;;;69.82;39.75;;;;;;;2.87;95.96;101195.75;7394823;19;20032;-69
2022/11/29 06:49:07;;;;;;;68.45;37.97;;;;;;;2.87;96.07;101196.66;7393282;19;20485;-69
2022/11/29 06:51:44;;;;;;;63.55;36.92;;;;;;;2.89;96.01;101196.66;7393357;19;20090;-69
2022/11/29 06:54:27;;;;;;;68.63;39.38;;;;;;;2.89;96.13;101201.84;7396097;19;20026;-69
2022/11/29 06:57:04;;;;;;;67.68;36.72;;;;;;;2.88;95.92;101206.19;7394166;19;20018;-69
2022/11/29 06:59:48;;;;;;;70.10;38.90;;;;;;;2.90;96.23;101208.78;7393258;19;20018;-69
2022/11/29 07:02:41;;;;;;;70.97;39.63;;;;;;;2.90;96.09;101216.56;7393127;19;20031;-69
2022/11/29 07:05:16;;;;;;;67.55;39.08;;;;;;;2.89;96.03;101207.91;7392160;19;20033;-69
2022/11/29 07:07:45;;;;;;;69.30;40.10;;;;;;;2.91;96.32;101213.13;7394808;19;20021;-70
2022/11/29 07:10:20;;;;;;;68.88;39.20;;;;;;;2.88;96.06;101211.34;7392996;19;20026;-69
2022/11/29 07:12:51;;;;;;;66.07;38.83;;;;;;;2.89;96.22;101209.63;7392947;19;20018;-69
2022/11/29 07:15:22;;;;;;;69.40;39.78;;;;;;;2.88;96.41;101211.34;7393051;19;20056;-69
2022/11/29 07:18:02;;;;;;;70.40;40.13;;;;;;;2.92;96.41;101222.66;7392303;19;20014;-69
2022/11/29 07:20:38;;;;;;;66.03;39.78;;;;;;;2.91;96.52;101215.72;7391907;19;20035;-69
2022/11/29 07:23:15;;;;;;;65.50;39.50;;;;;;;2.94;96.52;101220.94;7394960;19;20018;-69
2022/11/29 07:25:56;;;;;;;68.43;38.67;;;;;;;2.95;96.42;101224.44;7394760;19;20025;-68
2022/11/29 07:28:40;;;;;;;72.03;40.53;;;;;;;2.95;96.38;101227.00;7394255;19;20027;-69
2022/11/29 07:31:18;;;;;;;73.97;40.38;;;;;;;2.98;96.48;101221.88;7393108;19;20019;-68
2022/11/29 07:33:57;;;;;;;67.25;39.10;;;;;;;2.99;96.57;101234.00;7397136;19;20022;-68
2022/11/29 07:36:36;;;;;;;71.68;39.70;;;;;;;2.99;96.72;101229.66;7401434;19;20027;-68
2022/11/29 07:39:19;;;;;;;69.53;39.25;;;;;;;3.01;96.62;101238.34;7401218;19;20015;-68
2022/11/29 07:41:59;;;;;;;62.00;37.25;;;;;;;3.03;96.62;101238.38;7397637;19;20537;-68
2022/11/29 07:44:40;;;;;;;71.07;40.70;;;;;;;3.04;96.49;101237.53;7400619;19;20074;-69
2022/11/29 07:47:10;;;;;;;67.07;38.58;;;;;;;3.05;96.86;101237.56;7400673;19;20023;-68
2022/11/29 07:49:38;;;;;;;64.90;37.45;;;;;;;3.06;96.64;101239.31;7400691;19;20010;-68
2022/11/29 07:52:07;;;;;;;67.85;38.90;;;;;;;3.07;96.79;101241.06;7398225;19;20036;-68
2022/11/29 07:54:35;;;;;;;62.42;37.95;;;;;;;3.09;96.62;101243.66;7400312;19;20014;-69
2022/11/29 07:57:06;;;;;;;70.40;39.22;;;;;;;3.11;96.65;101244.59;7400022;19;20042;-69
2022/11/29 07:59:35;;;;;;;68.40;39.58;;;;;;;3.14;96.95;101248.94;7397788;19;20032;-69
2022/11/29 08:02:04;;;;;;;65.35;40.22;;;;;;;3.15;96.79;101248.97;7396999;19;20342;-69
2022/11/29 08:04:32;;;;;;;74.45;41.10;;;;;;;3.18;96.86;101255.91;7400063;19;20014;-70
2022/11/29 08:07:01;;;;;;;67.20;38.60;;;;;;;3.18;96.66;101242.94;7400639;19;20014;-69
2022/11/29 08:09:30;;;;;;;69.40;41.05;;;;;;;3.20;96.87;101244.72;7400393;19;20110;-70
2022/11/29 08:11:58;;;;;;;72.13;40.40;;;;;;;3.19;96.96;101245.56;7397183;19;20391;-69
2022/11/29 08:14:33;;;;;;;76.63;41.55;;;;;;;3.22;96.87;101253.41;7399770;19;20501;-69
2022/11/29 08:17:07;;;;;;;69.80;40.38;;;;;;;3.25;96.83;101252.59;7398852;19;20006;-67
2022/11/29 08:19:36;;;;;;;67.50;39.22;;;;;;;3.24;96.97;101249.09;7400295;19;20027;-68
2022/11/29 08:22:04;;;;;;;68.43;39.03;;;;;;;3.28;97.10;101256.94;7397063;19;20367;-68
2022/11/29 08:24:33;;;;;;;68.28;38.33;;;;;;;3.29;96.84;101258.69;7396934;19;20011;-68
2022/11/29 08:27:01;;;;;;;69.50;38.80;;;;;;;3.31;97.14;101252.69;7400141;19;20010;-69
2022/11/29 08:29:32;;;;;;;65.68;37.70;;;;;;;3.33;97.18;101252.72;7398400;19;20011;-68
2022/11/29 08:32:07;;;;;;;67.85;40.00;;;;;;;3.36;97.06;101261.41;7397280;19;20014;-69
2022/11/29 08:34:36;;;;;;;65.88;38.35;;;;;;;3.41;96.95;101258.88;7399155;19;20019;-68
2022/11/29 08:37:04;;;;;;;73.60;39.47;;;;;;;3.39;96.99;101255.41;7399522;19;20027;-68
2022/11/29 08:39:33;;;;;;;66.45;38.15;;;;;;;3.47;97.20;101258.13;7399891;19;20014;-69
2022/11/29 08:42:01;;;;;;;67.45;37.67;;;;;;;3.49;96.90;101256.41;7396852;19;20022;-68
2022/11/29 08:44:32;;;;;;;61.55;37.05;;;;;;;3.52;96.89;101262.50;7398854;19;20019;-69
2022/11/29 08:50:00;;;;;;;67.85;38.22;;;;;;;3.58;97.09;101264.34;7399756;19;20477;-68
2022/11/29 08:55:10;;;;;;;68.15;37.20;;;;;;;3.63;97.01;101267.88;7398477;19;20029;-69
2022/11/29 08:57:39;;;;;;;68.82;38.05;;;;;;;3.65;96.93;101265.31;7396794;19;20022;-69
2022/11/29 09:00:12;;;;;;;66.82;37.30;;;;;;;3.69;96.93;101280.97;7396454;19;20029;-68
2022/11/29 09:02:41;;;;;;;66.40;37.67;;;;;;;3.71;96.99;101274.03;7396937;19;20023;-69
2022/11/29 09:05:11;;;;;;;64.45;35.70;;;;;;;3.74;96.96;101274.09;7399131;19;20011;-69
2022/11/29 09:07:40;;;;;;;66.95;37.05;;;;;;;3.83;97.34;101277.66;7396176;19;20347;-68
2022/11/29 09:10:11;;;;;;;66.20;38.55;;;;;;;3.89;97.22;101278.66;7398154;19;20022;-69
2022/11/29 09:12:40;;;;;;;61.10;37.35;;;;;;;3.95;96.93;101282.19;7398963;19;20025;-69
2022/11/29 09:15:13;;;;;;;62.53;36.97;;;;;;;3.97;96.85;101283.97;7398198;19;20026;-69
2022/11/29 09:17:41;;;;;;;67.10;37.60;;;;;;;4.00;96.57;101281.38;7395790;19;20011;-69
2022/11/29 09:20:11;;;;;;;63.13;36.75;;;;;;;4.03;96.59;101285.75;7398582;19;20010;-69
2022/11/29 09:22:39;;;;;;;63.08;34.80;;;;;;;4.04;96.59;101287.50;7397117;19;20014;-69
2022/11/29 09:25:09;;;;;;;59.45;34.53;;;;;;;4.03;96.55;101286.66;7397228;19;20396;-68
2022/11/29 09:27:37;;;;;;;61.33;35.92;;;;;;;4.05;96.37;101281.47;7397583;19;20023;-68
2022/11/29 09:30:07;;;;;;;62.90;36.13;;;;;;;4.06;96.70;101281.47;7397540;19;20419;-69
2022/11/29 09:32:38;;;;;;;56.85;36.40;;;;;;;4.07;96.21;101282.38;7395801;19;20085;-67
2022/11/29 09:35:08;;;;;;;56.72;33.33;;;;;;;4.09;96.65;101278.03;7396058;19;20018;-67
2022/11/29 09:37:37;;;;;;;60.05;36.38;;;;;;;4.12;96.52;101285.00;7395588;19;20018;-66
2022/11/29 09:40:06;;;;;;;63.33;36.13;;;;;;;4.15;96.66;101290.25;7397161;19;20029;-67
2022/11/29 09:42:50;;;;;;;58.65;35.40;;;;;;;4.18;96.57;101290.28;7395325;19;20014;-67
2022/11/29 09:45:20;;;;;;;;;;;;;;;4.20;96.42;101289.44;7398241;19;20485;-67
2022/11/29 09:48:18;;;;;;;60.85;33.92;;;;;;;4.22;96.18;101289.47;7395015;19;19919;-67
2022/11/29 09:50:50;;;;;;;65.97;36.38;;;;;;;4.22;96.26;101294.66;7396867;19;20011;-69
2022/11/29 09:53:37;;;;;;;61.78;36.55;;;;;;;4.22;96.28;101292.97;7397068;19;20014;-70
2022/11/29 09:56:17;;;;;;;58.80;35.28;;;;;;;4.23;96.16;101294.72;7395274;19;20023;-70
2022/11/29 09:58:50;;;;;;;60.40;36.72;;;;;;;4.25;96.40;101297.31;7396717;19;20027;-69
2022/11/29 10:01:24;;;;;;;62.13;37.50;;;;;;;4.26;96.41;101299.06;7395925;19;20035;-70
2022/11/29 10:04:01;;;;;;;56.28;34.75;;;;;;;4.27;96.24;101298.19;7396347;19;20035;-70
2022/11/29 10:06:35;;;;;;;61.45;35.40;;;;;;;4.29;96.31;101299.09;7395147;19;20055;-71
2022/11/29 10:09:07;;;;;;;63.97;38.22;;;;;;;4.31;96.12;101302.59;7394759;19;20022;-70
2022/11/29 10:11:40;;;;;;;59.78;34.83;;;;;;;4.33;96.09;101302.59;7394696;19;20035;-71
2022/11/29 10:14:16;;;;;;;61.55;34.95;;;;;;;4.33;96.09;101303.47;7396847;19;20031;-69
2022/11/29 10:16:49;;;;;;;57.28;34.80;;;;;;;4.35;96.08;101304.38;7395687;19;20022;-70
2022/11/29 10:19:26;;;;;;;96.90;54.85;;;;;;;4.37;95.93;101306.97;7394574;19;20010;-70
2022/11/29 10:22:00;;;;;;;70.25;40.05;;;;;;;4.38;95.86;101304.41;7394360;19;20018;-69
2022/11/29 10:24:30;;;;;;;56.95;35.03;;;;;;;4.39;95.97;101306.16;7395704;19;20014;-69
2022/11/29 10:26:58;;;;;;;59.17;34.83;;;;;;;4.42;95.91;101305.31;7395894;19;20019;-68
2022/11/29 10:29:27;;;;;;;56.45;33.75;;;;;;;4.42;95.95;101309.66;7394318;19;20032;-70
2022/11/29 10:31:58;;;;;;;56.30;34.40;;;;;;;4.45;95.85;101312.28;7394196;19;20018;-69
2022/11/29 10:34:32;;;;;;;62.70;35.85;;;;;;;4.45;95.88;101309.69;7395697;19;20034;-69
2022/11/29 10:37:01;;;;;;;54.40;32.33;;;;;;;4.45;95.88;101307.97;7393236;19;20030;-69
2022/11/29 10:39:38;;;;;;;61.45;34.88;;;;;;;4.49;96.05;101316.69;7394998;19;20031;-69
2022/11/29 10:42:47;;;;;;;62.45;35.25;;;;;;;4.50;95.92;101316.69;7393250;19;20032;-71
2022/11/29 10:45:03;;;;;;;58.17;33.60;;;;;;;4.52;95.74;101314.09;7394706;19;20420;-70
2022/11/29 10:47:32;;;;;;;59.97;35.45;;;;;;;4.52;95.71;101316.69;7395506;19;20022;-68
2022/11/29 10:50:04;;;;;;;55.03;33.72;;;;;;;4.56;95.85;101315.88;7395621;19;20040;-70
2022/11/29 10:52:32;;;;;;;63.60;34.72;;;;;;;4.57;95.82;101310.72;7395669;19;20010;-68
2022/11/29 10:55:03;;;;;;;61.17;35.55;;;;;;;4.61;95.77;101313.34;7394913;19;20019;-68
2022/11/29 10:57:31;;;;;;;58.97;35.05;;;;;;;4.63;95.73;101309.91;7395373;19;20097;-68
2022/11/29 11:00:03;;;;;;;60.17;34.30;;;;;;;4.64;95.89;101303.88;7394468;19;20015;-69
2022/11/29 11:02:33;;;;;;;62.00;35.55;;;;;;;4.65;95.79;101305.63;7392663;19;20011;-68
2022/11/29 11:05:06;;;;;;;61.15;35.22;;;;;;;4.70;95.81;101314.34;7394783;19;20022;-68
2022/11/29 11:07:37;;;;;;;60.28;34.70;;;;;;;4.73;95.63;101308.28;7395324;19;20019;-68
2022/11/29 11:10:19;;;;;;;58.88;34.65;;;;;;;4.75;95.81;101313.50;7399422;19;20010;-68
2022/11/29 11:13:02;;;;;;;59.78;34.38;;;;;;;4.77;95.92;101314.41;7402625;19;20022;-66
2022/11/29 11:15:32;;;;;;;57.28;34.92;;;;;;;4.79;95.68;101312.69;7402133;19;20019;-68
2022/11/29 11:18:03;;;;;;;57.45;34.47;;;;;;;4.80;95.62;101314.44;7399386;19;20027;-68
2022/11/29 11:20:36;;;;;;;56.33;34.25;;;;;;;4.80;95.50;101310.13;7400911;19;20022;-68
2022/11/29 11:23:07;;;;;;;59.80;35.38;;;;;;;4.81;95.56;101311.84;7398918;19;20018;-70
2022/11/29 11:25:39;;;;;;;60.25;34.75;;;;;;;4.81;95.59;101306.63;7400667;19;20014;-66
2022/11/29 11:28:17;;;;;;;66.13;36.25;;;;;;;4.85;95.84;101307.56;7398616;19;20387;-68
2022/11/29 11:30:52;;;;;;;63.42;36.13;;;;;;;4.86;95.88;101307.56;7399654;19;20014;-69
2022/11/29 11:33:23;;;;;;;58.30;35.95;;;;;;;4.89;95.81;101305.00;7401816;19;20031;-67
2022/11/29 11:36:10;;;;;;;58.22;33.88;;;;;;;4.93;95.70;101308.53;7400700;19;20032;-68
2022/11/29 11:38:41;;;;;;;58.83;34.10;;;;;;;4.92;95.84;101305.91;7398755;19;20351;-69
2022/11/29 11:41:20;;;;;;;58.08;34.58;;;;;;;4.98;95.34;101319.84;7399729;19;20015;-68
2022/11/29 11:43:55;;;;;;;57.55;34.22;;;;;;;4.99;95.46;101308.59;7401751;19;20022;-71
2022/11/29 11:46:24;;;;;;;60.65;34.10;;;;;;;5.01;95.53;101312.06;7398501;19;20095;-67
2022/11/29 11:48:53;;;;;;;57.05;34.58;;;;;;;5.05;95.63;101318.16;7400916;19;20015;-67
2022/11/29 11:51:27;;;;;;;59.47;33.13;;;;;;;5.06;95.20;101319.91;7398100;19;20015;-68
2022/11/29 11:53:58;;;;;;;58.35;33.88;;;;;;;5.08;95.33;101322.53;7400574;19;20509;-68
2022/11/29 11:56:36;;;;;;;57.10;32.70;;;;;;;5.08;95.43;101319.91;7398646;19;20015;-68
2022/11/29 11:59:05;;;;;;;56.53;33.55;;;;;;;5.08;95.13;101328.63;7398139;19;20018;-69
2022/11/29 12:01:39;;;;;;;52.13;32.17;;;;;;;5.09;95.42;101326.88;7397217;19;20031;-69
2022/11/29 12:04:13;;;;;;;56.65;33.05;;;;;;;5.10;95.44;101326.88;7400362;19;20038;-68
2022/11/29 12:06:50;;;;;;;;;;;;;;;5.12;95.21;101324.28;7400709;19;20019;-68
2022/11/29 12:09:32;;;;;;;57.92;32.05;;;;;;;5.12;95.60;101326.91;7399675;19;19922;-68
2022/11/29 12:12:08;;;;;;;58.30;32.50;;;;;;;5.11;95.30;101331.22;7396923;19;20035;-68